createdAt,value
2022-10-11T00:00:32.036Z,100432.06
2022-10-11T00:03:34.155Z,100430.41
2022-10-11T00:06:38.118Z,100431.59
2022-10-11T00:09:40.546Z,100435.28
2022-10-11T00:12:42.707Z,100430.59
2022-10-11T00:15:44.745Z,100434.25
2022-10-11T00:18:47.077Z,100438.41
2022-10-11T00:21:49.106Z,100438.56
2022-10-11T00:24:52.819Z,100423.69
2022-10-11T00:27:55.002Z,100428.03
2022-10-11T00:30:57.163Z,100416.47
2022-10-11T00:33:59.383Z,100414.59
2022-10-11T00:37:01.592Z,100413.59
2022-10-11T00:40:13.108Z,100403.34
2022-10-11T00:43:18.344Z,100413.19
2022-10-11T00:46:29.560Z,100419.56
2022-10-11T00:49:38.327Z,100415.12
2022-10-11T00:52:50.187Z,100413.50
2022-10-11T00:55:57.526Z,100411.91
2022-10-11T00:59:02.012Z,100413.06
2022-10-11T01:02:06.836Z,100406.28
2022-10-11T01:05:28.681Z,100416.19
2022-10-11T01:08:34.931Z,100421.56
2022-10-11T01:11:41.262Z,100423.41
2022-10-11T01:14:58.688Z,100413.87
2022-10-11T01:18:03.361Z,100420.00
2022-10-11T01:21:17.676Z,100422.50
2022-10-11T01:24:41.697Z,100419.13
2022-10-11T01:28:09.135Z,100420.19
2022-10-11T01:31:25.566Z,100420.34
2022-10-11T01:34:37.278Z,100416.16
2022-10-11T01:37:43.627Z,100418.62
2022-10-11T01:41:09.923Z,100408.16
2022-10-11T01:44:13.737Z,100416.94
2022-10-11T01:47:23.365Z,100422.22
2022-10-11T01:50:37.228Z,100415.22
2022-10-11T01:55:07.669Z,100423.13
2022-10-11T01:58:14.501Z,100420.28
2022-10-11T02:01:33.703Z,100420.34
2022-10-11T02:04:44.874Z,100416.78
2022-10-11T02:08:03.009Z,100413.28
2022-10-11T02:11:13.624Z,100416.69
2022-10-11T02:14:23.231Z,100413.22
2022-10-11T02:17:34.561Z,100413.22
2022-10-11T02:20:40.483Z,100406.41
2022-10-11T02:23:56.446Z,100406.47
2022-10-11T02:27:03.079Z,100407.44
2022-10-11T02:30:08.175Z,100407.44
2022-10-11T02:33:14.576Z,100411.03
2022-10-11T02:36:25.039Z,100418.84
2022-10-11T02:39:34.351Z,100420.63
2022-10-11T02:42:44.539Z,100421.72
2022-10-11T02:45:54.913Z,100422.00
2022-10-11T02:49:00.691Z,100420.59
2022-10-11T02:52:06.054Z,100419.09
2022-10-11T02:55:09.044Z,100417.84
2022-10-11T02:58:11.004Z,100417.13
2022-10-11T03:01:13.306Z,100415.34
2022-10-11T03:04:15.464Z,100418.81
2022-10-11T03:07:17.478Z,100416.19
2022-10-11T03:10:19.515Z,100413.69
2022-10-11T03:13:22.006Z,100420.34
2022-10-11T03:16:23.989Z,100425.59
2022-10-11T03:19:26.718Z,100435.12
2022-10-11T03:22:28.668Z,100437.34
2022-10-11T03:25:30.724Z,100436.41
2022-10-11T03:28:32.753Z,100439.91
2022-10-11T03:31:35.933Z,100442.47
2022-10-11T03:34:37.914Z,100443.38
2022-10-11T03:37:39.924Z,100447.75
2022-10-11T03:40:42.877Z,100451.22
2022-10-11T03:43:44.882Z,100457.34
2022-10-11T03:46:46.858Z,100459.16
2022-10-11T03:49:48.935Z,100462.75
2022-10-11T03:52:51.166Z,100464.37
2022-10-11T03:55:54.783Z,100469.72
2022-10-11T03:58:56.823Z,100468.00
2022-10-11T04:01:58.873Z,100476.84
2022-10-11T04:05:01.900Z,100477.13
2022-10-11T04:08:06.324Z,100484.94
2022-10-11T04:11:11.800Z,100477.03
2022-10-11T04:14:13.839Z,100474.34
2022-10-11T04:17:15.882Z,100475.06
2022-10-11T04:20:18.293Z,100481.16
2022-10-11T04:23:20.272Z,100482.25
2022-10-11T04:26:22.239Z,100486.84
2022-10-11T04:29:27.736Z,100479.88
2022-10-11T04:32:33.617Z,100480.78
2022-10-11T04:35:35.725Z,100474.81
2022-10-11T04:38:37.791Z,100473.19
2022-10-11T04:41:39.875Z,100480.94
2022-10-11T04:44:41.812Z,100479.94
2022-10-11T04:47:43.769Z,100480.78
2022-10-11T04:50:46.097Z,100480.06
2022-10-11T04:53:48.869Z,100486.97
2022-10-11T04:56:50.945Z,100479.94
2022-10-11T04:59:52.897Z,100480.94
2022-10-11T05:02:55.358Z,100487.06
2022-10-11T05:05:59.989Z,100489.75
2022-10-11T05:09:04.128Z,100493.38
2022-10-11T05:12:06.393Z,100501.25
2022-10-11T05:15:08.968Z,100508.56
2022-10-11T05:18:11.027Z,100513.84
2022-10-11T05:21:19.401Z,100510.56
2022-10-11T05:24:21.487Z,100515.84
2022-10-11T05:27:23.429Z,100516.56
2022-10-11T05:30:25.392Z,100514.84
2022-10-11T05:33:27.466Z,100519.06
2022-10-11T05:36:29.479Z,100518.97
2022-10-11T05:39:31.493Z,100525.09
2022-10-11T05:42:33.532Z,100523.91
2022-10-11T05:45:38.391Z,100531.59
2022-10-11T05:48:40.637Z,100535.66
2022-10-11T05:51:42.625Z,100542.19
2022-10-11T05:54:44.621Z,100540.50
2022-10-11T05:57:46.791Z,100536.31
2022-10-11T06:00:48.849Z,100541.56
2022-10-11T06:03:51.386Z,100539.06
2022-10-11T06:06:53.451Z,100535.50
2022-10-11T06:09:55.426Z,100539.75
2022-10-11T06:12:57.717Z,100549.41
2022-10-11T06:15:59.685Z,100546.06
2022-10-11T06:19:01.683Z,100552.13
2022-10-11T06:22:03.718Z,100550.97
2022-10-11T06:25:06.474Z,100550.88
2022-10-11T06:28:08.604Z,100552.78
2022-10-11T06:31:11.204Z,100551.66
2022-10-11T06:34:13.140Z,100542.34
2022-10-11T06:37:15.383Z,100546.72
2022-10-11T06:40:17.782Z,100546.00
2022-10-11T06:43:20.230Z,100556.50
2022-10-11T06:46:24.335Z,100567.53
2022-10-11T06:49:26.397Z,100567.53
2022-10-11T06:52:28.474Z,100567.25
2022-10-11T06:55:32.486Z,100567.16
2022-10-11T06:58:34.695Z,100576.22
2022-10-11T07:01:36.719Z,100573.63
2022-10-11T07:04:39.449Z,100576.09
2022-10-11T07:07:41.490Z,100585.50
2022-10-11T07:10:43.523Z,100587.72
2022-10-11T07:13:50.990Z,100584.25
2022-10-11T07:16:52.952Z,100588.59
2022-10-11T07:19:54.907Z,100594.84
2022-10-11T07:22:56.965Z,100595.31
2022-10-11T07:25:59.436Z,100601.00
2022-10-11T07:29:01.699Z,100600.16
2022-10-11T07:32:03.901Z,100610.50
2022-10-11T07:35:06.153Z,100603.22
2022-10-11T07:38:08.584Z,100601.69
2022-10-11T07:41:11.263Z,100597.69
2022-10-11T07:44:14.097Z,100606.63
2022-10-11T07:47:16.150Z,100600.38
2022-10-11T07:50:18.384Z,100607.69
2022-10-11T07:53:20.355Z,100612.56
2022-10-11T07:56:28.299Z,100621.00
2022-10-11T07:59:30.291Z,100622.25
2022-10-11T08:02:32.431Z,100621.31
2022-10-11T08:05:35.082Z,100612.63
2022-10-11T08:08:37.773Z,100619.87
2022-10-11T08:11:40.185Z,100615.41
2022-10-11T08:14:42.300Z,100609.06
2022-10-11T08:17:44.212Z,100620.44
2022-10-11T08:20:46.685Z,100619.31
2022-10-11T08:23:48.826Z,100619.09
2022-10-11T08:26:52.025Z,100621.09
2022-10-11T08:29:53.997Z,100614.03
2022-10-11T08:32:57.055Z,100616.94
2022-10-11T08:35:59.150Z,100613.22
2022-10-11T08:39:01.325Z,100618.28
2022-10-11T08:42:16.065Z,100615.03
2022-10-11T08:45:30.227Z,100618.31
2022-10-11T08:48:38.565Z,100619.63
2022-10-11T08:51:45.696Z,100624.28
2022-10-11T08:54:58.333Z,100613.47
2022-10-11T08:58:00.841Z,100613.47
2022-10-11T09:01:03.338Z,100613.37
2022-10-11T09:04:06.294Z,100616.66
2022-10-11T09:07:28.070Z,100616.16
2022-10-11T09:10:54.955Z,100624.41
2022-10-11T09:14:31.515Z,100615.56
2022-10-11T09:18:02.778Z,100612.09
2022-10-11T09:21:12.835Z,100614.06
2022-10-11T09:24:31.725Z,100616.75
2022-10-11T09:28:01.180Z,100612.88
2022-10-11T09:31:00.452Z,100614.31
2022-10-11T09:34:15.175Z,100615.81
2022-10-11T09:37:30.288Z,100611.03
2022-10-11T09:40:49.259Z,100614.19
2022-10-11T09:43:52.577Z,100608.78
2022-10-11T09:46:56.229Z,100610.75
2022-10-11T09:50:04.386Z,100611.78
2022-10-11T09:53:07.849Z,100607.84
2022-10-11T09:56:10.194Z,100607.28
2022-10-11T09:59:27.295Z,100609.81
2022-10-11T10:02:31.267Z,100609.50
2022-10-11T10:05:37.043Z,100607.41
2022-10-11T10:08:39.066Z,100615.06
2022-10-11T10:11:41.172Z,100619.06
2022-10-11T10:14:43.221Z,100608.66
2022-10-11T10:17:51.183Z,100617.03
2022-10-11T10:20:56.391Z,100618.12
2022-10-11T10:24:03.281Z,100614.13
2022-10-11T10:27:14.682Z,100613.87
2022-10-11T10:30:19.645Z,100608.88
2022-10-11T10:33:24.683Z,100606.78
2022-10-11T10:36:35.667Z,100601.59
2022-10-11T10:39:45.085Z,100610.41
2022-10-11T10:42:47.144Z,100599.69
2022-10-11T10:46:34.352Z,100599.56
2022-10-11T10:50:14.156Z,100589.19
2022-10-11T10:53:40.742Z,100587.88
2022-10-11T10:57:20.982Z,100592.28
2022-10-11T11:00:24.414Z,100585.78
2022-10-11T11:04:01.892Z,100581.97
2022-10-11T11:07:19.133Z,100586.66
2022-10-11T11:10:45.194Z,100582.47
2022-10-11T11:14:02.463Z,100577.62
2022-10-11T11:17:25.226Z,100582.00
2022-10-11T11:20:39.384Z,100574.12
2022-10-11T11:24:01.452Z,100572.03
2022-10-11T11:27:31.088Z,100569.16
2022-10-11T11:30:57.870Z,100571.38
2022-10-11T11:34:44.584Z,100573.78
2022-10-11T11:37:48.436Z,100574.72
2022-10-11T11:40:57.410Z,100573.59
2022-10-11T11:44:16.153Z,100570.91
2022-10-11T11:47:24.285Z,100561.19
2022-10-11T11:50:28.634Z,100562.59
2022-10-11T11:53:32.337Z,100562.34
2022-10-11T11:56:51.012Z,100557.12
2022-10-11T12:00:02.210Z,100561.91
2022-10-11T12:03:13.566Z,100553.91
2022-10-11T12:06:20.450Z,100548.41
2022-10-11T12:09:23.369Z,100548.91
2022-10-11T12:12:34.130Z,100542.44
2022-10-11T12:15:37.107Z,100541.41
2022-10-11T12:19:01.872Z,100545.81
2022-10-11T12:22:36.890Z,100531.50
2022-10-11T12:25:41.112Z,100531.87
2022-10-11T12:28:43.569Z,100530.81
2022-10-11T12:31:50.906Z,100533.62
2022-10-11T12:35:31.412Z,100543.69
2022-10-11T12:38:37.933Z,100539.88
2022-10-11T12:41:49.015Z,100539.09
2022-10-11T12:45:13.310Z,100532.19
2022-10-11T12:48:38.414Z,100534.41
2022-10-11T12:52:04.831Z,100533.75
2022-10-11T12:55:09.804Z,100533.91
2022-10-11T12:58:17.876Z,100528.41
2022-10-11T13:01:27.297Z,100531.09
2022-10-11T13:04:32.903Z,100525.56
2022-10-11T13:07:35.864Z,100517.34
2022-10-11T13:10:44.949Z,100512.78
2022-10-11T13:13:56.199Z,100523.34
2022-10-11T13:17:04.128Z,100502.34
2022-10-11T13:20:09.292Z,100511.06
2022-10-11T13:23:23.359Z,100509.75
2022-10-11T13:26:28.094Z,100509.00
2022-10-11T13:29:33.978Z,100498.75
2022-10-11T13:32:36.738Z,100506.06
2022-10-11T13:35:39.092Z,100511.44
2022-10-11T13:38:41.433Z,100505.50
2022-10-11T13:41:43.828Z,100507.19
2022-10-11T13:44:47.209Z,100508.94
2022-10-11T13:47:51.353Z,100504.50
2022-10-11T13:51:18.055Z,100509.16
2022-10-11T13:54:20.046Z,100510.66
2022-10-11T13:57:32.931Z,100507.06
2022-10-11T14:00:39.673Z,100514.41
2022-10-11T14:03:46.310Z,100512.06
2022-10-11T14:06:56.715Z,100500.84
2022-10-11T14:09:58.877Z,100508.37
2022-10-11T14:13:35.126Z,100506.75
2022-10-11T14:16:37.217Z,100519.41
2022-10-11T14:19:39.761Z,100517.66
2022-10-11T14:22:41.813Z,100520.38
2022-10-11T14:25:43.852Z,100517.53
2022-10-11T14:28:49.506Z,100513.81
2022-10-11T14:32:01.429Z,100506.34
2022-10-11T14:35:04.115Z,100512.81
2022-10-11T14:38:06.174Z,100514.00
2022-10-11T14:41:08.210Z,100520.75
2022-10-11T14:44:10.736Z,100517.25
2022-10-11T14:47:17.006Z,100516.53
2022-10-11T14:50:35.036Z,100526.03
2022-10-11T14:53:40.867Z,100516.69
2022-10-11T14:56:43.068Z,100518.56
2022-10-11T14:59:45.071Z,100516.38
2022-10-11T15:02:47.334Z,100512.31
2022-10-11T15:05:49.328Z,100508.41
2022-10-11T15:08:51.523Z,100522.50
2022-10-11T15:11:54.882Z,100516.88
2022-10-11T15:14:56.807Z,100524.81
2022-10-11T15:18:00.479Z,100527.53
2022-10-11T15:21:02.580Z,100525.63
2022-10-11T15:24:04.753Z,100529.72
2022-10-11T15:27:06.744Z,100532.78
2022-10-11T15:30:17.327Z,100537.59
2022-10-11T15:33:19.581Z,100529.53
2022-10-11T15:36:22.910Z,100526.88
2022-10-11T15:39:33.917Z,100537.88
2022-10-11T15:42:35.954Z,100537.88
2022-10-11T15:45:38.660Z,100535.22
2022-10-11T15:48:40.768Z,100538.72
2022-10-11T15:51:44.183Z,100541.72
2022-10-11T15:54:46.177Z,100540.84
2022-10-11T15:57:48.189Z,100547.81
2022-10-11T16:00:54.209Z,100543.81
2022-10-11T16:03:56.315Z,100555.09
2022-10-11T16:06:58.293Z,100549.81
2022-10-11T16:10:00.354Z,100549.69
2022-10-11T16:13:02.642Z,100551.25
2022-10-11T16:16:10.317Z,100558.44
2022-10-11T16:19:12.968Z,100565.53
2022-10-11T16:22:15.077Z,100566.69
2022-10-11T16:25:17.783Z,100570.84
2022-10-11T16:28:19.819Z,100570.75
2022-10-11T16:31:21.910Z,100578.16
2022-10-11T16:34:24.105Z,100582.56
2022-10-11T16:37:26.090Z,100590.19
2022-10-11T16:40:30.164Z,100596.97
2022-10-11T16:43:32.124Z,100592.50
2022-10-11T16:46:34.641Z,100595.78
2022-10-11T16:49:37.554Z,100595.88
2022-10-11T16:52:39.549Z,100594.53
2022-10-11T16:55:41.869Z,100597.81
2022-10-11T16:58:43.935Z,100601.78
2022-10-11T17:01:46.102Z,100601.66
2022-10-11T17:04:51.550Z,100600.38
2022-10-11T17:07:53.656Z,100601.69
2022-10-11T17:10:57.703Z,100613.44
2022-10-11T17:14:01.108Z,100617.31
2022-10-11T17:17:04.902Z,100621.66
2022-10-11T17:20:07.253Z,100616.53
2022-10-11T17:23:09.787Z,100618.69
2022-10-11T17:26:17.167Z,100619.87
2022-10-11T17:29:21.473Z,100621.19
2022-10-11T17:32:23.800Z,100621.53
2022-10-11T17:35:25.718Z,100625.62
2022-10-11T17:38:28.303Z,100622.88
2022-10-11T17:41:32.244Z,100627.41
2022-10-11T17:44:36.297Z,100634.59
2022-10-11T17:47:38.264Z,100638.13
2022-10-11T17:50:45.819Z,100629.38
2022-10-11T17:53:51.081Z,100634.28
2022-10-11T17:56:54.630Z,100632.81
2022-10-11T17:59:57.822Z,100631.53
2022-10-11T18:02:59.895Z,100637.06
2022-10-11T18:06:07.133Z,100633.66
2022-10-11T18:09:09.503Z,100634.09
2022-10-11T18:12:11.446Z,100645.69
2022-10-11T18:15:14.287Z,100636.00
2022-10-11T18:18:18.273Z,100646.97
2022-10-11T18:21:20.847Z,100641.84
2022-10-11T18:24:23.194Z,100640.25
2022-10-11T18:27:25.172Z,100644.28
2022-10-11T18:30:27.322Z,100643.75
2022-10-11T18:33:29.262Z,100650.22
2022-10-11T18:36:33.385Z,100648.41
2022-10-11T18:39:36.064Z,100645.97
2022-10-11T18:42:38.441Z,100647.06
2022-10-11T18:45:40.778Z,100648.41
2022-10-11T18:48:44.929Z,100652.22
2022-10-11T18:51:48.393Z,100657.97
2022-10-11T18:54:51.667Z,100653.69
2022-10-11T18:57:54.172Z,100648.69
2022-10-11T19:01:03.540Z,100649.66
2022-10-11T19:04:07.922Z,100651.75
2022-10-11T19:07:10.177Z,100642.50
2022-10-11T19:10:12.495Z,100646.50
2022-10-11T19:13:14.940Z,100644.28
2022-10-11T19:16:17.721Z,100647.22
2022-10-11T19:19:22.337Z,100651.28
2022-10-11T19:22:25.430Z,100652.62
2022-10-11T19:25:28.343Z,100651.41
2022-10-11T19:28:31.982Z,100652.69
2022-10-11T19:31:36.486Z,100650.44
2022-10-11T19:34:38.790Z,100664.63
2022-10-11T19:37:41.120Z,100663.91
2022-10-11T19:40:44.518Z,100667.66
2022-10-11T19:43:47.058Z,100666.94
2022-10-11T19:46:52.075Z,100665.31
2022-10-11T19:49:55.211Z,100665.00
2022-10-11T19:52:57.639Z,100674.31
2022-10-11T19:56:05.950Z,100663.84
2022-10-11T19:59:09.038Z,100673.16
2022-10-11T20:02:12.996Z,100675.59
2022-10-11T20:05:15.547Z,100672.34
2022-10-11T20:08:17.645Z,100678.25
2022-10-11T20:11:20.837Z,100675.38
2022-10-11T20:14:22.942Z,100673.31
2022-10-11T20:17:45.119Z,100681.03
2022-10-11T20:20:59.385Z,100674.47
2022-10-11T20:24:04.232Z,100667.16
2022-10-11T20:27:06.669Z,100671.53
2022-10-11T20:30:09.163Z,100678.66
2022-10-11T20:33:11.219Z,100673.34
2022-10-11T20:36:16.091Z,100682.38
2022-10-11T20:39:18.141Z,100679.38
2022-10-11T20:42:20.154Z,100681.41
2022-10-11T20:45:22.173Z,100682.25
2022-10-11T20:48:24.380Z,100682.25
2022-10-11T20:51:27.094Z,100692.88
2022-10-11T20:54:29.941Z,100683.41
2022-10-11T20:57:32.196Z,100687.97
2022-10-11T21:00:34.337Z,100696.25
2022-10-11T21:03:36.466Z,100689.44
2022-10-11T21:06:38.417Z,100698.53
2022-10-11T21:09:40.448Z,100695.31
2022-10-11T21:12:42.488Z,100689.44
2022-10-11T21:15:44.479Z,100691.44
2022-10-11T21:18:50.997Z,100686.44
2022-10-11T21:21:53.951Z,100692.97
2022-10-11T21:24:56.003Z,100694.97
2022-10-11T21:27:57.977Z,100694.31
2022-10-11T21:31:08.287Z,100690.91
2022-10-11T21:34:10.351Z,100694.59
2022-10-11T21:37:12.373Z,100685.13
2022-10-11T21:40:14.443Z,100692.53
2022-10-11T21:43:16.382Z,100679.62
2022-10-11T21:46:20.068Z,100680.41
2022-10-11T21:49:22.134Z,100676.06
2022-10-11T21:52:24.188Z,100686.75
2022-10-11T21:55:27.270Z,100679.81
2022-10-11T21:58:29.349Z,100674.50
2022-10-11T22:01:31.354Z,100685.13
2022-10-11T22:04:33.431Z,100678.50
2022-10-11T22:07:35.401Z,100678.81
2022-10-11T22:10:37.339Z,100679.09
2022-10-11T22:13:39.440Z,100680.22
2022-10-11T22:16:41.448Z,100682.13
2022-10-11T22:19:43.525Z,100683.25
2022-10-11T22:22:45.547Z,100678.91
2022-10-11T22:25:47.470Z,100675.69
2022-10-11T22:28:49.897Z,100670.66
2022-10-11T22:31:51.883Z,100669.03
2022-10-11T22:34:53.974Z,100675.19
2022-10-11T22:37:55.855Z,100670.19
2022-10-11T22:40:58.948Z,100673.94
2022-10-11T22:44:01.096Z,100674.13
2022-10-11T22:47:03.137Z,100667.44
2022-10-11T22:50:05.519Z,100671.00
2022-10-11T22:53:08.658Z,100669.69
2022-10-11T22:56:11.358Z,100676.19
2022-10-11T22:59:13.610Z,100673.34
2022-10-11T23:02:15.564Z,100672.91
2022-10-11T23:05:17.783Z,100678.38
2022-10-11T23:08:19.757Z,100674.22
2022-10-11T23:11:21.773Z,100677.22
2022-10-11T23:14:23.714Z,100672.62
2022-10-11T23:17:25.783Z,100673.94
2022-10-11T23:20:28.728Z,100683.75
2022-10-11T23:23:31.076Z,100677.37
2022-10-11T23:26:33.039Z,100681.22
2022-10-11T23:29:35.133Z,100680.78
2022-10-11T23:32:37.091Z,100687.28
2022-10-11T23:35:39.107Z,100691.31
2022-10-11T23:38:41.317Z,100690.72
2022-10-11T23:41:43.979Z,100693.81
2022-10-11T23:44:46.047Z,100697.47
2022-10-11T23:47:48.126Z,100694.13
2022-10-11T23:50:50.327Z,100689.84
2022-10-11T23:53:52.274Z,100696.16
2022-10-11T23:56:54.275Z,100698.22
2022-10-11T23:59:56.275Z,100701.78
